Barber, Kansas
Current Conditions -  °F | °C
As of 12:55 AM on Monday 24 Nov 2014 (Local Time) from KPTS Reporting Station
Scattered Clouds Scattered Clouds  
Wind Chill: 39°   Ceiling: Unl
Heat Index: 43°   Visibility: 10mi
Dew Point: 36°   Wind: 7mph
Humidity: 76%   Direction: 310°NW
Pressure: 29.6"   Gusts: NA
Location:  37.5542°N, 94.6826°W
Report Text: KPTS 240655Z AUTO 31006KT 10SM SCT120 06/02 A2960 RMK AO2 T00630023
Loading
Personal Weather Stations






























Interactive Weather Map New forecast layout! Learn more

10-Day Weather Forecast

Advertisements
Track Severe Weather on mobile